Time;durP1;ratioP1;P1;durP2;ratioP2;P2;SDS_P1;SDS_P2;PMS_P1;PMS_P2;Temp;Humidity;BMP_temperature;BMP_pressure;BME280_temperature;BME280_humidity;BME280_pressure;Samples;Min_cycle;Max_cycle;Signal;HPM_P1;HPM_P2
2023/01/19 00:01:50;;;;;;;18.27;9.63;;;;;;;-20.22;61.42;101628.75;4901242;28;20747;-55
2023/01/19 00:04:21;;;;;;;19.63;10.52;;;;;;;-19.91;61.10;101627.66;4881036;28;20053;-54
2023/01/19 00:06:53;;;;;;;24.88;10.18;;;;;;;-19.81;60.36;101625.59;4890894;28;20044;-55
2023/01/19 00:09:24;;;;;;;19.48;10.40;;;;;;;-19.62;60.27;101609.69;4888480;28;20058;-52
2023/01/19 00:11:54;;;;;;;23.83;11.05;;;;;;;-19.51;59.73;101612.66;4895860;28;20808;-53
2023/01/19 00:14:25;;;;;;;22.80;12.52;;;;;;;-19.41;59.58;101610.59;4893849;28;20046;-53
2023/01/19 00:16:55;;;;;;;23.85;10.90;;;;;;;-19.22;59.74;101619.59;4902446;28;20068;-52
2023/01/19 00:19:28;;;;;;;21.73;11.95;;;;;;;-19.11;60.13;101612.56;4886105;28;20143;-55
2023/01/19 00:22:01;;;;;;;21.00;11.07;;;;;;;-19.18;59.96;101611.78;4903207;28;20049;-54
2023/01/19 00:24:31;;;;;;;19.70;10.73;;;;;;;-19.20;60.64;101607.31;4907249;28;20106;-52
2023/01/19 00:27:03;;;;;;;24.92;12.05;;;;;;;-19.22;60.83;101614.59;4892724;28;20056;-52
2023/01/19 00:29:34;;;;;;;25.45;12.38;;;;;;;-19.24;61.00;101611.06;4908755;28;21007;-55
2023/01/19 00:32:06;;;;;;;25.48;11.43;;;;;;;-19.17;61.54;101593.63;4908896;28;20046;-55
2023/01/19 00:34:38;;;;;;;23.88;11.75;;;;;;;-18.86;61.48;101607.34;4891927;28;20053;-54
2023/01/19 00:37:10;;;;;;;109.63;37.03;;;;;;;-19.38;61.45;101451.59;4909518;28;20540;-53
2023/01/19 00:39:41;;;;;;;31.33;14.02;;;;;;;-18.36;61.12;101619.94;4910874;28;20062;-56
2023/01/19 00:45:15;;;;;;;392.55;94.82;;;;;;;-18.32;59.23;101617.13;4847250;28;20050;-56
2023/01/19 00:47:47;;;;;;;58.38;20.55;;;;;;;-18.34;58.83;101613.56;4895910;28;20052;-56
2023/01/19 00:50:18;;;;;;;119.18;40.83;;;;;;;-18.81;58.51;101515.69;4892827;28;20114;-59
2023/01/19 00:52:51;;;;;;;99.25;33.15;;;;;;;-18.24;58.35;101590.59;4892685;28;20053;-57
2023/01/19 00:55:23;;;;;;;25.30;13.35;;;;;;;-18.13;58.32;101599.34;4899400;28;20048;-57
2023/01/19 00:57:54;;;;;;;23.38;11.60;;;;;;;-18.11;58.28;101577.94;4906237;28;20756;-57
2023/01/19 01:00:25;;;;;;;26.20;11.10;;;;;;;-18.04;58.37;101590.44;4913549;28;20131;-56
2023/01/19 01:02:56;;;;;;;23.77;10.77;;;;;;;-17.85;58.07;101589.34;4891165;28;20067;-57
2023/01/19 01:05:27;;;;;;;20.13;10.32;;;;;;;-17.73;57.57;101591.47;4909105;28;20056;-57
2023/01/19 01:07:59;;;;;;;21.10;11.15;;;;;;;-17.63;57.51;101592.72;4909665;28;20479;-57
2023/01/19 01:10:30;;;;;;;30.45;11.75;;;;;;;-17.60;57.42;101577.19;4909664;28;20174;-57
2023/01/19 01:13:00;;;;;;;25.33;12.35;;;;;;;-17.04;57.79;101587.81;4903940;28;20055;-57
2023/01/19 01:15:52;;;;;;;31.55;16.25;;;;;;;-16.56;57.58;101584.00;4897407;28;20044;-57
2023/01/19 01:18:22;;;;;;;39.08;22.25;;;;;;;-16.49;57.47;101537.19;4908786;28;20076;-56
2023/01/19 01:20:53;;;;;;;31.50;16.02;;;;;;;-16.31;56.61;101571.72;4885152;28;20061;-58
2023/01/19 01:23:26;;;;;;;24.23;13.07;;;;;;;-16.13;56.68;101573.75;4908198;28;20751;-58
2023/01/19 01:25:56;;;;;;;27.20;12.65;;;;;;;-15.91;56.95;101566.09;4900332;28;20483;-58
2023/01/19 01:28:27;;;;;;;30.08;11.85;;;;;;;-15.71;56.92;101545.69;4905149;28;20087;-57
2023/01/19 01:30:58;;;;;;;24.40;11.82;;;;;;;-15.46;57.42;101549.19;4897727;28;20563;-58
2023/01/19 01:33:28;;;;;;;20.90;11.23;;;;;;;-15.26;57.60;101559.72;4908938;28;20063;-58
2023/01/19 01:36:10;;;;;;;31.20;11.98;;;;;;;-15.20;57.26;101559.47;4899918;28;20197;-58
2023/01/19 01:38:43;;;;;;;31.83;13.40;;;;;;;-15.10;56.71;101537.19;4904546;28;20156;-58
2023/01/19 01:41:14;;;;;;;30.45;13.85;;;;;;;-14.88;56.26;101540.31;4900621;28;20064;-58
2023/01/19 01:43:47;;;;;;;19.90;10.15;;;;;;;-14.93;55.92;101516.34;4899306;28;20076;-58
2023/01/19 01:46:18;;;;;;;20.85;10.18;;;;;;;-14.74;55.35;101513.28;4900919;28;20094;-58
2023/01/19 01:48:55;;;;;;;25.10;11.32;;;;;;;-14.34;56.05;101528.28;4899913;28;20144;-58
2023/01/19 01:51:29;;;;;;;21.30;10.23;;;;;;;-14.24;55.48;101525.06;4879001;28;20055;-59
2023/01/19 01:54:15;;;;;;;22.42;10.15;;;;;;;-14.00;55.04;101522.56;4905158;28;20846;-58
2023/01/19 01:56:48;;;;;;;20.77;10.35;;;;;;;-13.96;54.20;101523.72;4890690;28;20060;-59
2023/01/19 01:59:37;;;;;;;19.90;8.50;;;;;;;-13.76;54.72;101519.06;4902252;28;20106;-59
2023/01/19 02:05:06;;;;;;;15.32;7.95;;;;;;;-13.10;53.96;101507.09;4891971;28;20060;-59
2023/01/19 02:13:20;;;;;;;19.13;8.23;;;;;;;-12.89;53.04;101503.22;4892048;28;20144;-59
2023/01/19 02:15:53;;;;;;;16.00;8.35;;;;;;;-13.27;52.98;101473.66;4903515;28;20060;-59
2023/01/19 02:18:27;;;;;;;14.95;7.00;;;;;;;-13.80;52.97;101435.69;4898970;28;20667;-60
2023/01/19 02:21:07;;;;;;;17.25;7.22;;;;;;;-13.41;53.41;101493.16;4902825;28;20167;-59
2023/01/19 02:23:43;;;;;;;;;;;;;;;-13.30;53.61;101492.59;4892829;28;20107;-59
2023/01/19 02:26:16;;;;;;;12.85;5.53;;;;;;;-13.28;53.78;101496.13;4901426;28;19937;-59
2023/01/19 02:28:51;;;;;;;10.65;5.80;;;;;;;-13.53;53.49;101493.72;4903656;28;21048;-59
2023/01/19 02:31:21;;;;;;;13.60;5.78;;;;;;;-13.66;53.11;101503.31;4903186;28;20467;-59
2023/01/19 02:33:53;;;;;;;11.80;5.82;;;;;;;-13.54;53.54;101491.94;4904053;28;20048;-59
2023/01/19 02:36:27;;;;;;;10.82;5.70;;;;;;;-13.52;53.21;101485.44;4902410;28;20621;-60
2023/01/19 02:39:03;;;;;;;15.30;7.00;;;;;;;-13.34;53.62;101485.47;4902506;28;20080;-59
2023/01/19 02:41:51;;;;;;;15.32;8.40;;;;;;;-13.18;53.40;101476.13;4898807;28;20106;-59
2023/01/19 02:44:23;;;;;;;16.15;7.10;;;;;;;-13.10;53.48;101480.28;4892396;28;20055;-59
2023/01/19 02:46:55;;;;;;;14.30;6.63;;;;;;;-12.88;53.26;101484.88;4898560;28;21097;-60
2023/01/19 02:49:30;;;;;;;12.43;5.53;;;;;;;-13.05;52.04;101480.75;4904635;28;20053;-59
2023/01/19 02:52:18;;;;;;;10.70;6.53;;;;;;;-13.89;52.64;101394.63;4914835;28;20072;-59
2023/01/19 02:55:03;;;;;;;13.55;6.55;;;;;;;-13.32;52.83;101463.91;4880912;28;20620;-59
2023/01/19 02:57:53;;;;;;;12.80;5.50;;;;;;;-13.07;53.34;101452.91;4891881;28;20619;-59
2023/01/19 03:00:37;;;;;;;12.77;5.45;;;;;;;-12.98;53.15;101444.47;4889333;28;20049;-60
2023/01/19 03:03:23;;;;;;;8.07;4.78;;;;;;;-13.08;52.59;101451.16;4892541;28;20063;-59
2023/01/19 03:06:02;;;;;;;13.07;5.40;;;;;;;-13.30;52.63;101447.34;4888697;28;21058;-60
2023/01/19 03:08:43;;;;;;;11.50;5.20;;;;;;;-13.36;52.79;101426.59;4903222;28;20048;-59
2023/01/19 03:11:16;;;;;;;12.20;5.18;;;;;;;-13.61;52.72;101384.00;4891914;28;20057;-60
2023/01/19 03:13:52;;;;;;;10.45;4.95;;;;;;;-13.42;52.94;101403.41;4904047;28;20056;-59
2023/01/19 03:16:25;;;;;;;9.65;4.93;;;;;;;-13.28;53.22;101421.59;4903951;28;20653;-59
2023/01/19 03:18:58;;;;;;;8.05;4.80;;;;;;;-13.35;52.94;101419.22;4892651;28;20102;-59
2023/01/19 03:21:31;;;;;;;11.90;5.63;;;;;;;-13.40;53.12;101404.41;4903484;28;20044;-59
2023/01/19 03:24:05;;;;;;;10.40;5.18;;;;;;;-13.32;53.41;101413.59;4903986;28;20113;-59
2023/01/19 03:26:44;;;;;;;10.80;5.25;;;;;;;-13.37;53.54;101384.63;4892887;28;20090;-60
2023/01/19 03:29:18;;;;;;;11.45;5.60;;;;;;;-12.95;53.24;101396.94;4895384;28;20053;-59
2023/01/19 03:31:50;;;;;;;12.15;6.28;;;;;;;-12.75;53.13;101397.22;4903608;28;20072;-59
2023/01/19 03:34:22;;;;;;;8.48;5.10;;;;;;;-13.15;53.66;101272.72;4904414;28;20102;-59
2023/01/19 03:36:56;;;;;;;11.85;4.78;;;;;;;-12.62;53.33;101380.00;4902893;28;20064;-60
2023/01/19 03:39:28;;;;;;;11.25;4.70;;;;;;;-12.71;52.58;101381.66;4902729;28;20057;-59
2023/01/19 03:42:05;;;;;;;9.13;5.03;;;;;;;-12.94;52.82;101383.63;4903785;28;20105;-59
2023/01/19 03:44:39;;;;;;;10.77;5.28;;;;;;;-12.84;53.59;101381.25;4893106;28;20074;-59
2023/01/19 03:47:12;;;;;;;8.15;4.65;;;;;;;-13.52;54.04;101291.00;4902794;28;20835;-59
2023/01/19 03:49:45;;;;;;;13.23;6.13;;;;;;;-13.24;54.26;101367.41;4902231;28;20048;-60
2023/01/19 03:52:16;;;;;;;11.50;5.63;;;;;;;-13.52;55.04;101379.00;4891694;28;20092;-60
2023/01/19 03:54:47;;;;;;;8.10;5.15;;;;;;;-13.74;55.69;101361.81;4900245;28;20059;-59
2023/01/19 03:57:19;;;;;;;13.98;5.60;;;;;;;-14.02;56.46;101363.25;4900293;28;20063;-59
2023/01/19 03:59:50;;;;;;;11.15;5.10;;;;;;;-14.16;56.50;101353.47;4902935;28;20056;-59
2023/01/19 04:02:20;;;;;;;12.38;5.70;;;;;;;-14.41;56.39;101333.47;4901780;28;20063;-59
2023/01/19 04:04:51;;;;;;;9.57;4.88;;;;;;;-14.49;56.47;101331.81;4902374;28;20056;-59
2023/01/19 04:07:22;;;;;;;13.13;5.40;;;;;;;-14.51;56.43;101318.22;4902797;28;20072;-59
2023/01/19 04:09:52;;;;;;;10.20;5.65;;;;;;;-14.40;56.94;101331.81;4902977;28;20064;-59
2023/01/19 04:12:25;;;;;;;10.38;5.32;;;;;;;-14.46;56.37;101316.16;4902932;28;20051;-59
2023/01/19 04:14:55;;;;;;;16.83;5.38;;;;;;;-14.47;55.67;101320.31;4892556;28;20064;-59
2023/01/19 04:17:26;;;;;;;12.13;5.45;;;;;;;-14.72;55.97;101316.09;4902089;28;20781;-59
2023/01/19 04:19:56;;;;;;;16.23;6.50;;;;;;;-14.65;56.84;101314.38;4900748;28;20060;-59
2023/01/19 04:22:27;;;;;;;15.88;6.75;;;;;;;-14.69;56.88;101306.41;4903213;28;20068;-59
2023/01/19 04:24:58;;;;;;;15.88;6.88;;;;;;;-14.58;57.20;101305.81;4902386;28;20852;-59
2023/01/19 04:27:30;;;;;;;12.90;6.72;;;;;;;-14.54;56.95;101302.91;4901782;28;20049;-59
2023/01/19 04:30:00;;;;;;;14.60;6.30;;;;;;;-14.44;56.87;101298.03;4902786;28;20048;-59
2023/01/19 04:32:32;;;;;;;15.70;6.53;;;;;;;-14.45;57.29;101278.69;4901876;28;20075;-59
2023/01/19 04:35:03;;;;;;;13.95;6.68;;;;;;;-14.27;57.16;101292.16;4902174;28;20039;-59
2023/01/19 04:37:33;;;;;;;15.68;7.20;;;;;;;-14.29;57.24;101295.25;4901293;28;20053;-59
2023/01/19 04:40:04;;;;;;;19.35;7.95;;;;;;;-15.03;57.23;101167.56;4910099;28;20109;-60
2023/01/19 04:42:43;;;;;;;17.92;6.60;;;;;;;-14.43;56.48;101292.25;4903083;28;20049;-59
2023/01/19 04:45:14;;;;;;;17.67;7.00;;;;;;;-14.53;56.34;101309.69;4897333;28;20338;-59
2023/01/19 04:47:45;;;;;;;10.50;6.13;;;;;;;-14.49;56.33;101303.31;4902446;28;20805;-59
2023/01/19 04:50:16;;;;;;;13.55;6.13;;;;;;;-14.48;56.71;101303.47;4901917;28;20057;-59
2023/01/19 04:52:47;;;;;;;17.48;6.75;;;;;;;-14.59;57.72;101301.56;4902038;28;20383;-59
2023/01/19 04:55:18;;;;;;;11.77;6.40;;;;;;;-14.45;57.88;101288.72;4902031;28;20052;-59
2023/01/19 04:57:50;;;;;;;14.43;6.30;;;;;;;-14.25;57.41;101297.31;4901166;28;20074;-59
2023/01/19 05:00:22;;;;;;;15.35;6.80;;;;;;;-14.03;57.13;101301.19;4897623;28;20060;-59
2023/01/19 05:02:52;;;;;;;17.85;6.47;;;;;;;-13.86;56.59;101315.38;4890886;28;20059;-59
2023/01/19 05:05:23;;;;;;;20.33;6.95;;;;;;;-13.79;56.39;101306.84;4890583;28;20043;-59
2023/01/19 05:07:54;;;;;;;14.32;5.80;;;;;;;-13.97;56.30;101256.59;4887761;28;20055;-59
2023/01/19 05:10:25;;;;;;;17.08;6.93;;;;;;;-13.56;56.42;101297.34;4891833;28;20583;-59
2023/01/19 05:12:57;;;;;;;17.48;6.72;;;;;;;-13.62;55.37;101306.84;4891248;28;20403;-59
2023/01/19 05:15:28;;;;;;;12.77;6.10;;;;;;;-13.73;55.25;101310.81;4891595;28;20063;-59
2023/01/19 05:17:59;;;;;;;10.77;6.68;;;;;;;-13.79;55.50;101314.38;4887258;28;20060;-59
2023/01/19 05:20:29;;;;;;;13.85;6.07;;;;;;;-13.87;55.21;101317.78;4890337;28;20080;-59
2023/01/19 05:23:00;;;;;;;19.30;6.70;;;;;;;-13.92;55.38;101320.72;4891182;28;20057;-59
2023/01/19 05:25:31;;;;;;;14.43;6.93;;;;;;;-13.94;55.68;101328.84;4891976;28;20049;-59
2023/01/19 05:28:03;;;;;;;13.90;6.80;;;;;;;-13.99;55.71;101337.56;4891581;28;20051;-59
2023/01/19 05:30:34;;;;;;;11.98;5.97;;;;;;;-14.03;55.74;101331.31;4887120;28;20426;-59
2023/01/19 05:33:05;;;;;;;19.25;6.90;;;;;;;-14.21;55.63;101334.56;4900616;28;20046;-59
2023/01/19 05:35:35;;;;;;;12.27;6.43;;;;;;;-14.39;55.98;101332.00;4891638;28;20156;-58
2023/01/19 05:38:06;;;;;;;17.88;7.47;;;;;;;-14.50;56.08;101325.03;4890330;28;20045;-58
2023/01/19 05:40:36;;;;;;;16.85;8.20;;;;;;;-14.44;56.28;101330.66;4891434;28;20057;-59
2023/01/19 05:43:08;;;;;;;17.20;7.72;;;;;;;-14.39;56.29;101332.00;4890055;28;20119;-59
2023/01/19 05:45:39;;;;;;;25.10;8.30;;;;;;;-14.37;56.24;101322.13;4890263;28;20052;-59
2023/01/19 05:48:10;;;;;;;24.58;9.13;;;;;;;-14.29;56.34;101320.38;4890013;28;20071;-59
2023/01/19 05:50:41;;;;;;;31.65;9.27;;;;;;;-14.14;56.55;101321.88;4890337;28;20048;-59
2023/01/19 05:53:11;;;;;;;40.38;14.80;;;;;;;-13.98;56.37;101320.09;4902363;28;20384;-59
2023/01/19 05:55:42;;;;;;;72.35;22.02;;;;;;;-13.86;56.20;101319.53;4878578;28;20049;-59
2023/01/19 05:58:14;;;;;;;62.85;19.92;;;;;;;-13.85;56.00;101326.31;4890786;28;20067;-59
2023/01/19 06:00:45;;;;;;;77.95;27.42;;;;;;;-13.98;56.08;101305.03;4881462;28;20055;-59
2023/01/19 06:03:15;;;;;;;25.23;11.07;;;;;;;-13.93;56.08;101318.91;4890857;28;20053;-59
2023/01/19 06:05:46;;;;;;;26.55;10.30;;;;;;;-14.00;56.08;101311.56;4890186;28;20057;-58
2023/01/19 06:08:17;;;;;;;26.85;10.75;;;;;;;-14.05;55.99;101312.72;4890918;28;20063;-59
2023/01/19 06:10:47;;;;;;;29.10;11.88;;;;;;;-14.06;56.00;101310.94;4890178;28;20118;-58
2023/01/19 06:13:20;;;;;;;29.90;12.35;;;;;;;-14.03;56.12;101311.22;4890979;28;20057;-58
2023/01/19 06:15:56;;;;;;;37.10;12.93;;;;;;;-13.98;56.57;101305.03;4893468;28;20067;-58
2023/01/19 06:18:27;;;;;;;37.58;13.57;;;;;;;-13.99;56.59;101297.38;4884147;28;20063;-58
2023/01/19 06:20:58;;;;;;;31.13;11.77;;;;;;;-13.97;56.67;101301.81;4905433;28;20063;-58
2023/01/19 06:23:32;;;;;;;27.40;10.90;;;;;;;-13.96;56.69;101303.56;4877317;28;20044;-58
2023/01/19 06:26:03;;;;;;;25.17;10.07;;;;;;;-14.06;57.14;101300.91;4894317;28;20111;-59
2023/01/19 06:28:36;;;;;;;19.58;9.65;;;;;;;-14.06;57.02;101295.88;4891050;28;20050;-57
2023/01/19 06:31:07;;;;;;;21.13;9.68;;;;;;;-14.21;56.87;101294.38;4881794;28;20110;-59
2023/01/19 06:33:38;;;;;;;30.52;13.38;;;;;;;-14.37;57.38;101275.31;4894157;28;20122;-58
2023/01/19 06:36:12;;;;;;;25.80;12.45;;;;;;;-14.31;57.46;101290.06;4890926;28;20064;-58
2023/01/19 06:38:42;;;;;;;26.13;11.57;;;;;;;-14.36;57.65;101284.59;4892939;28;20045;-59
2023/01/19 06:41:13;;;;;;;35.08;15.50;;;;;;;-14.35;57.62;101295.50;4891997;28;20171;-58
2023/01/19 06:43:45;;;;;;;30.52;12.15;;;;;;;-14.36;57.96;101303.78;4893089;28;20043;-59
2023/01/19 06:46:15;;;;;;;35.00;12.35;;;;;;;-14.41;57.87;101288.28;4893534;28;20500;-58
2023/01/19 06:48:46;;;;;;;26.30;10.43;;;;;;;-14.40;57.92;101282.53;4891407;28;20076;-58
2023/01/19 06:51:17;;;;;;;20.58;10.02;;;;;;;-14.40;57.76;101282.53;4891149;28;20056;-58
2023/01/19 06:53:48;;;;;;;24.77;9.80;;;;;;;-14.40;57.85;101277.53;4893619;28;20079;-59
2023/01/19 06:56:18;;;;;;;24.65;9.55;;;;;;;-14.32;58.36;101287.41;4893657;28;20052;-58
2023/01/19 06:58:51;;;;;;;23.00;9.73;;;;;;;-14.22;58.36;101287.59;4893136;28;20072;-58
2023/01/19 07:01:22;;;;;;;24.20;10.18;;;;;;;-14.15;58.03;101287.44;4893372;28;20056;-59
2023/01/19 07:03:53;;;;;;;23.55;9.70;;;;;;;-14.13;58.28;101283.44;4886348;28;20069;-59
2023/01/19 07:06:23;;;;;;;20.55;9.13;;;;;;;-14.19;58.15;101277.84;4900545;28;20073;-59
2023/01/19 07:08:55;;;;;;;20.90;10.02;;;;;;;-14.26;58.04;101280.50;4899663;28;20403;-59
2023/01/19 07:11:25;;;;;;;23.08;9.52;;;;;;;-14.29;58.17;101290.22;4893007;28;20053;-59
2023/01/19 07:14:03;;;;;;;21.35;9.98;;;;;;;-14.30;58.80;101288.44;4893978;28;20044;-59
2023/01/19 07:16:33;;;;;;;24.02;8.77;;;;;;;-14.41;59.06;101295.81;4892719;28;20120;-59
2023/01/19 07:19:04;;;;;;;22.17;9.38;;;;;;;-14.48;58.56;101303.47;4899660;28;20089;-59
2023/01/19 07:21:35;;;;;;;23.13;9.38;;;;;;;-14.53;58.51;101294.63;4895743;28;20053;-58
2023/01/19 07:24:05;;;;;;;20.02;9.23;;;;;;;-14.56;58.83;101299.34;4893635;28;20550;-58
2023/01/19 07:26:36;;;;;;;21.38;9.88;;;;;;;-14.63;59.32;101296.97;4886343;28;20053;-58
2023/01/19 07:29:08;;;;;;;25.95;10.73;;;;;;;-15.18;59.89;101216.19;4890205;28;20049;-58
2023/01/19 07:31:39;;;;;;;20.40;9.75;;;;;;;-14.64;60.85;101295.19;4893677;28;20144;-58
2023/01/19 07:34:09;;;;;;;26.30;10.55;;;;;;;-14.98;61.36;101256.69;4893498;28;20053;-58
2023/01/19 07:36:41;;;;;;;27.38;11.45;;;;;;;-14.67;61.86;101289.88;4893135;28;20053;-58
2023/01/19 07:39:11;;;;;;;30.55;12.25;;;;;;;-14.73;62.34;101284.22;4891549;28;20723;-58
2023/01/19 07:41:41;;;;;;;25.95;11.63;;;;;;;-14.75;62.60;101280.69;4893213;28;20053;-58
2023/01/19 07:44:13;;;;;;;24.92;10.57;;;;;;;-14.85;63.03;101277.28;4893572;28;20074;-58
2023/01/19 07:46:44;;;;;;;31.70;12.00;;;;;;;-14.74;63.60;101282.47;4888409;28;20074;-59
2023/01/19 07:49:14;;;;;;;23.63;11.05;;;;;;;-14.69;64.13;101287.19;4896530;28;20046;-58
2023/01/19 07:51:45;;;;;;;27.50;11.30;;;;;;;-14.80;64.52;101278.63;4894158;28;20062;-58
2023/01/19 07:54:15;;;;;;;27.67;11.50;;;;;;;-14.66;64.66;101296.66;4891555;28;20080;-58
2023/01/19 07:56:46;;;;;;;24.70;11.05;;;;;;;-14.59;64.80;101294.03;4891433;28;20049;-58
2023/01/19 07:59:18;;;;;;;28.05;12.40;;;;;;;-14.70;65.28;101279.50;4891981;28;20052;-59
2023/01/19 08:01:52;;;;;;;27.13;13.02;;;;;;;-14.61;65.51;101290.47;4885446;28;20057;-58
2023/01/19 08:04:51;;;;;;;33.22;13.82;;;;;;;-14.53;66.25;101304.66;4857717;28;20110;-58
2023/01/19 08:07:45;;;;;;;35.00;12.75;;;;;;;-14.50;67.07;101284.88;4806068;28;20060;-59
2023/01/19 08:10:21;;;;;;;41.85;14.50;;;;;;;-14.45;67.39;101293.75;4885857;28;20610;-58
2023/01/19 08:12:58;;;;;;;49.35;19.70;;;;;;;-14.42;67.59;101289.03;4877120;28;20072;-60
2023/01/19 08:15:30;;;;;;;46.10;17.88;;;;;;;-14.38;67.82;101291.09;4873965;28;20144;-58
2023/01/19 08:22:32;;;;;;;44.25;17.98;;;;;;;-14.35;68.66;101286.38;4874008;28;20186;-58
2023/01/19 08:25:05;;;;;;;34.17;15.40;;;;;;;-14.34;68.43;101283.13;4866739;28;20521;-58
2023/01/19 08:27:41;;;;;;;38.88;15.38;;;;;;;-14.42;68.88;101276.47;4884560;28;20049;-59
2023/01/19 08:30:33;;;;;;;34.85;13.73;;;;;;;-14.60;68.39;101280.59;4877316;28;20213;-59
2023/01/19 08:33:22;;;;;;;33.42;14.30;;;;;;;-14.91;68.78;101279.16;4874709;28;20065;-58
2023/01/19 08:35:59;;;;;;;63.33;18.13;;;;;;;-15.02;69.29;101284.72;4874342;28;20684;-59
2023/01/19 08:38:32;;;;;;;55.22;19.10;;;;;;;-15.33;70.11;101228.06;4883011;28;20057;-61
2023/01/19 08:41:07;;;;;;;41.72;18.42;;;;;;;-14.93;70.49;101285.63;4878387;28;20059;-60
2023/01/19 08:43:40;;;;;;;53.20;20.08;;;;;;;-15.23;70.55;101215.72;4884880;28;20790;-58
2023/01/19 08:46:10;;;;;;;38.35;16.90;;;;;;;-14.88;70.95;101284.47;4883117;28;20467;-58
2023/01/19 08:48:44;;;;;;;42.70;17.33;;;;;;;-15.13;70.83;101205.88;4884481;28;20049;-59
2023/01/19 08:51:18;;;;;;;38.25;15.73;;;;;;;-14.84;71.04;101258.97;4864860;28;20058;-59
2023/01/19 08:54:00;;;;;;;39.88;15.40;;;;;;;-14.85;71.30;101244.66;4881080;28;20680;-59
2023/01/19 08:56:36;;;;;;;33.58;14.13;;;;;;;-14.73;71.18;101254.13;4873976;28;20491;-58
2023/01/19 09:07:58;;;;;;;34.63;11.63;;;;;;;-14.62;70.92;101268.63;4876427;28;20929;-58
2023/01/19 09:10:34;;;;;;;33.25;12.75;;;;;;;-14.75;70.98;101250.56;4868949;28;20049;-58
2023/01/19 09:13:09;;;;;;;36.05;13.60;;;;;;;-14.72;70.85;101265.91;4871232;28;20053;-57
2023/01/19 09:15:42;;;;;;;29.38;12.70;;;;;;;-14.90;70.45;101250.84;4881301;28;20543;-58
2023/01/19 09:18:15;;;;;;;39.35;15.43;;;;;;;-15.11;70.76;101213.56;4881659;28;21054;-58
2023/01/19 09:20:47;;;;;;;42.92;15.60;;;;;;;-14.99;71.00;101272.47;4871263;28;20073;-58
2023/01/19 09:23:21;;;;;;;35.03;15.15;;;;;;;-14.89;71.18;101277.69;4881675;28;20534;-58
2023/01/19 09:25:58;;;;;;;33.25;14.68;;;;;;;-14.88;71.40;101268.53;4881524;28;20090;-58
2023/01/19 09:28:30;;;;;;;46.75;17.73;;;;;;;-14.82;71.58;101265.03;4871852;28;20132;-58
2023/01/19 09:31:07;;;;;;;43.53;16.40;;;;;;;-14.88;71.63;101254.38;4880454;28;20587;-58
2023/01/19 09:33:38;;;;;;;42.70;16.55;;;;;;;-14.67;71.76;101269.81;4871160;28;20077;-58
2023/01/19 09:36:10;;;;;;;47.17;17.02;;;;;;;-14.81;71.52;101256.75;4881406;28;20041;-58
2023/01/19 09:38:42;;;;;;;47.40;18.50;;;;;;;-14.82;71.03;101275.06;4881002;28;20041;-58
2023/01/19 09:41:21;;;;;;;48.28;19.27;;;;;;;-14.94;70.69;101268.81;4877836;28;20785;-58
2023/01/19 09:43:58;;;;;;;39.83;14.20;;;;;;;-15.12;70.17;101261.94;4881451;28;20049;-58
2023/01/19 09:46:36;;;;;;;46.33;17.33;;;;;;;-15.83;70.03;101154.59;4870556;28;20060;-58
2023/01/19 09:49:13;;;;;;;56.25;18.92;;;;;;;-15.31;70.04;101265.09;4874676;28;20037;-57
2023/01/19 09:51:48;;;;;;;61.42;20.00;;;;;;;-15.42;69.79;101248.09;4846321;28;20079;-59
2023/01/19 09:54:21;;;;;;;68.45;23.48;;;;;;;-15.55;69.67;101242.53;4884811;28;20391;-58
2023/01/19 09:56:55;;;;;;;78.20;24.00;;;;;;;-15.57;69.62;101256.50;4883601;28;20068;-58
2023/01/19 09:59:29;;;;;;;77.82;23.38;;;;;;;-15.68;69.51;101256.31;4874000;28;20059;-58
2023/01/19 10:02:19;;;;;;;61.80;20.35;;;;;;;-15.94;68.89;101231.13;4885055;28;21917;-58
2023/01/19 10:05:01;;;;;;;58.25;17.55;;;;;;;-16.03;68.94;101229.28;4873716;28;20155;-58
2023/01/19 10:07:53;;;;;;;53.13;18.75;;;;;;;-16.26;68.87;101234.41;4874713;28;20088;-57
2023/01/19 10:10:28;;;;;;;49.45;17.90;;;;;;;-16.56;68.77;101213.81;4871664;28;21781;-57
2023/01/19 10:13:20;;;;;;;41.70;15.25;;;;;;;-16.77;68.99;101221.53;4886481;28;20053;-58
2023/01/19 10:16:02;;;;;;;40.75;16.27;;;;;;;-16.94;68.88;101232.28;4875288;28;20970;-57
2023/01/19 10:18:46;;;;;;;39.33;15.32;;;;;;;-17.07;69.08;101225.06;4873442;28;20054;-57
2023/01/19 10:21:22;;;;;;;44.70;15.73;;;;;;;-17.26;69.10;101212.19;4876140;28;20525;-57
2023/01/19 10:23:57;;;;;;;38.50;15.68;;;;;;;-17.53;68.87;101225.06;4886207;28;20062;-57
2023/01/19 10:26:35;;;;;;;36.00;15.35;;;;;;;-17.77;69.33;101227.34;4875929;28;20063;-57
2023/01/19 10:29:14;;;;;;;40.55;13.13;;;;;;;-17.99;69.59;101235.00;4875992;28;20053;-57
2023/01/19 10:31:47;;;;;;;35.13;12.55;;;;;;;-18.57;70.11;101164.50;4876751;28;20041;-56
2023/01/19 10:34:19;;;;;;;26.42;10.50;;;;;;;-18.49;70.59;101210.28;4886089;28;20048;-56
2023/01/19 10:37:03;;;;;;;15.20;8.30;;;;;;;-18.53;71.35;101215.63;4885334;28;20502;-57
2023/01/19 10:39:35;;;;;;;19.38;8.50;;;;;;;-18.65;71.64;101219.22;4876411;28;20126;-56
2023/01/19 10:42:13;;;;;;;20.58;8.40;;;;;;;-18.92;71.86;101207.91;4886402;28;20059;-55
2023/01/19 10:44:47;;;;;;;11.85;7.00;;;;;;;-19.05;72.04;101219.69;4881671;28;20062;-56
2023/01/19 10:47:21;;;;;;;9.68;6.38;;;;;;;-19.31;72.87;101212.59;4886811;28;20067;-55
2023/01/19 10:49:53;;;;;;;13.40;7.15;;;;;;;-19.53;73.14;101191.78;4885997;28;20475;-56
2023/01/19 10:52:32;;;;;;;18.63;8.35;;;;;;;-19.57;73.43;101195.50;4877303;28;20878;-56
2023/01/19 10:55:05;;;;;;;12.90;5.75;;;;;;;-19.63;73.83;101204.75;4885672;28;20471;-56
2023/01/19 10:57:42;;;;;;;9.48;6.68;;;;;;;-19.69;74.18;101196.63;4875841;28;20048;-55
2023/01/19 11:00:37;;;;;;;15.45;6.85;;;;;;;-19.69;74.36;101184.16;4886224;28;20049;-55
2023/01/19 11:03:24;;;;;;;14.48;7.00;;;;;;;-19.68;74.74;101180.97;4874968;28;20059;-55
2023/01/19 11:06:18;;;;;;;12.40;6.57;;;;;;;-19.57;74.42;101195.50;4876363;28;20123;-55
2023/01/19 11:08:51;;;;;;;12.85;7.47;;;;;;;-19.61;74.49;101185.91;4879924;28;20541;-55
2023/01/19 11:11:24;;;;;;;8.15;6.25;;;;;;;-19.74;74.88;101170.31;4899223;28;20049;-55
2023/01/19 11:14:10;;;;;;;14.82;6.10;;;;;;;-19.86;74.96;101153.94;4885037;28;20097;-54
2023/01/19 11:16:50;;;;;;;27.52;11.80;;;;;;;-19.78;75.05;101178.09;4894025;28;20106;-56
2023/01/19 11:19:28;;;;;;;18.40;8.50;;;;;;;-19.93;75.11;101156.41;4893916;28;20048;-54
2023/01/19 11:22:20;;;;;;;11.43;7.10;;;;;;;-19.77;75.55;101167.44;4893941;28;20150;-54
2023/01/19 11:24:52;;;;;;;12.48;6.50;;;;;;;-19.72;75.44;101173.84;4888512;28;20810;-55
2023/01/19 11:27:24;;;;;;;12.95;7.55;;;;;;;-19.79;75.22;101156.41;4894228;28;20475;-55
2023/01/19 11:30:09;;;;;;;7.80;6.90;;;;;;;-20.20;75.24;101085.31;4897089;28;20057;-55
2023/01/19 11:32:42;;;;;;;17.38;8.10;;;;;;;-19.90;75.42;101154.28;4892640;28;20105;-55
2023/01/19 11:35:36;;;;;;;13.00;7.38;;;;;;;-19.96;75.86;101141.09;4903445;28;20049;-54
2023/01/19 11:38:19;;;;;;;17.42;6.95;;;;;;;-20.93;75.68;100979.09;4881585;28;20147;-55
2023/01/19 11:40:55;;;;;;;11.43;6.68;;;;;;;-20.33;75.74;101087.97;4893155;28;20056;-55
2023/01/19 11:43:30;;;;;;;15.57;8.45;;;;;;;-19.98;75.90;101137.59;4894364;28;20060;-54
2023/01/19 11:46:20;;;;;;;14.85;7.57;;;;;;;-19.97;75.92;101129.41;4893545;28;20091;-54
2023/01/19 11:49:00;;;;;;;20.33;10.65;;;;;;;-19.97;75.92;101125.31;4903590;28;20737;-55
2023/01/19 11:51:38;;;;;;;25.75;12.18;;;;;;;-19.95;75.99;101133.84;4892623;28;20062;-54
2023/01/19 11:54:22;;;;;;;34.92;12.23;;;;;;;-19.91;75.97;101120.19;4893195;28;20051;-54
2023/01/19 11:56:55;;;;;;;50.97;18.33;;;;;;;-19.87;75.94;101147.16;4893015;28;20056;-54
2023/01/19 12:03:19;;;;;;;45.47;15.35;;;;;;;-19.75;76.16;101118.75;4919017;28;20063;-53
2023/01/19 12:05:56;;;;;;;34.92;12.98;;;;;;;-19.48;75.98;101105.19;4898242;28;20052;-54
2023/01/19 12:08:36;;;;;;;15.90;7.68;;;;;;;-19.32;75.86;101101.25;4899117;28;20063;-52